createdAt,value
2022-10-15T00:00:36.656Z,0.00
2022-10-15T00:01:36.779Z,0.00
2022-10-15T00:02:36.729Z,0.00
2022-10-15T00:03:36.738Z,0.00
2022-10-15T00:04:36.768Z,0.00
2022-10-15T00:05:36.795Z,0.00
2022-10-15T00:06:36.824Z,0.00
2022-10-15T00:07:36.852Z,0.00
2022-10-15T00:08:36.880Z,0.00
2022-10-15T00:09:36.907Z,0.00
2022-10-15T00:10:36.936Z,0.00
2022-10-15T00:11:36.963Z,0.00
2022-10-15T00:12:36.992Z,0.00
2022-10-15T00:13:37.019Z,0.00
2022-10-15T00:14:37.055Z,0.00
2022-10-15T00:15:37.075Z,0.00
2022-10-15T00:16:37.106Z,0.00
2022-10-15T00:17:37.131Z,0.00
2022-10-15T00:18:37.181Z,0.00
2022-10-15T00:19:37.188Z,0.00
2022-10-15T00:20:37.217Z,0.00
2022-10-15T00:21:37.244Z,0.00
2022-10-15T00:22:37.274Z,0.00
2022-10-15T00:23:37.300Z,0.00
2022-10-15T00:24:37.332Z,0.00
2022-10-15T00:25:37.361Z,0.00
2022-10-15T00:26:37.386Z,0.00
2022-10-15T00:27:37.413Z,0.00
2022-10-15T00:28:37.515Z,0.00
2022-10-15T00:29:37.468Z,0.00
2022-10-15T00:30:37.499Z,0.00
2022-10-15T00:31:37.526Z,0.00
2022-10-15T00:32:37.562Z,0.00
2022-10-15T00:33:37.581Z,0.00
2022-10-15T00:34:37.628Z,0.00
2022-10-15T00:35:37.639Z,0.00
2022-10-15T00:36:37.667Z,0.00
2022-10-15T00:37:37.693Z,0.00
2022-10-15T00:38:37.723Z,0.00
2022-10-15T00:39:37.752Z,0.00
2022-10-15T00:40:37.780Z,0.00
2022-10-15T00:41:37.808Z,0.00
2022-10-15T00:42:37.836Z,0.00
2022-10-15T00:43:37.864Z,0.00
2022-10-15T00:44:37.891Z,0.00
2022-10-15T00:45:37.917Z,0.00
2022-10-15T00:46:37.947Z,0.00
2022-10-15T00:47:37.974Z,0.00
2022-10-15T00:48:38.004Z,0.00
2022-10-15T00:49:38.029Z,0.00
2022-10-15T00:50:38.078Z,0.00
2022-10-15T00:51:38.087Z,0.00
2022-10-15T00:52:38.115Z,0.00
2022-10-15T00:53:38.141Z,0.00
2022-10-15T00:54:38.171Z,0.00
2022-10-15T00:55:38.199Z,0.00
2022-10-15T00:56:38.228Z,0.00
2022-10-15T00:57:38.263Z,0.00
2022-10-15T00:58:38.285Z,0.00
2022-10-15T00:59:38.309Z,0.00
2022-10-15T01:00:38.337Z,0.00
2022-10-15T01:01:38.380Z,0.00
2022-10-15T01:02:38.396Z,0.00
2022-10-15T01:03:38.423Z,0.00
2022-10-15T01:04:38.450Z,0.00
2022-10-15T01:05:38.482Z,0.00
2022-10-15T01:06:38.624Z,0.00
2022-10-15T01:07:38.534Z,0.00
2022-10-15T01:08:38.565Z,0.00
2022-10-15T01:09:38.592Z,0.00
2022-10-15T01:10:38.619Z,0.00
2022-10-15T01:11:38.647Z,0.00
2022-10-15T01:12:38.674Z,0.00
2022-10-15T01:13:38.701Z,0.00
2022-10-15T01:14:38.732Z,0.00
2022-10-15T01:15:38.760Z,0.00
2022-10-15T01:16:38.787Z,0.00
2022-10-15T01:17:38.812Z,0.00
2022-10-15T01:18:38.843Z,0.00
2022-10-15T01:19:38.867Z,0.00
2022-10-15T01:20:38.896Z,0.00
2022-10-15T01:21:38.922Z,0.00
2022-10-15T01:22:38.970Z,0.00
2022-10-15T01:23:38.981Z,0.00
2022-10-15T01:24:39.009Z,0.00
2022-10-15T01:25:39.034Z,0.00
2022-10-15T01:26:39.063Z,0.00
2022-10-15T01:27:39.090Z,0.00
2022-10-15T01:28:39.191Z,0.00
2022-10-15T01:29:39.146Z,0.00
2022-10-15T01:30:39.175Z,0.00
2022-10-15T01:31:39.201Z,0.00
2022-10-15T01:32:39.231Z,0.00
2022-10-15T01:33:39.257Z,0.00
2022-10-15T01:34:39.293Z,0.00
2022-10-15T01:35:39.314Z,0.00
2022-10-15T01:36:39.346Z,0.00
2022-10-15T01:37:39.400Z,0.00
2022-10-15T01:38:39.463Z,0.00
2022-10-15T01:39:39.424Z,0.00
2022-10-15T01:40:39.452Z,0.00
2022-10-15T01:41:39.479Z,0.00
2022-10-15T01:42:39.508Z,0.00
2022-10-15T01:43:39.553Z,0.00
2022-10-15T01:44:39.684Z,0.00
2022-10-15T01:45:39.591Z,0.00
2022-10-15T01:46:39.619Z,0.00
2022-10-15T01:47:39.646Z,0.00
2022-10-15T01:48:39.674Z,0.00
2022-10-15T01:49:39.711Z,0.00
2022-10-15T01:50:39.731Z,0.00
2022-10-15T01:51:39.759Z,0.00
2022-10-15T01:52:39.787Z,0.00
2022-10-15T01:53:39.813Z,0.00
2022-10-15T01:54:39.860Z,0.00
2022-10-15T01:55:39.867Z,0.00
2022-10-15T01:56:39.894Z,0.00
2022-10-15T01:57:39.921Z,0.00
2022-10-15T01:58:39.954Z,0.00
2022-10-15T01:59:39.978Z,0.00
2022-10-15T02:00:40.066Z,0.00
2022-10-15T02:01:40.070Z,0.00
2022-10-15T02:02:40.063Z,0.00
2022-10-15T02:03:40.088Z,0.00
2022-10-15T02:04:40.117Z,0.00
2022-10-15T02:05:40.142Z,0.00
2022-10-15T02:06:40.172Z,0.00
2022-10-15T02:07:40.198Z,0.00
2022-10-15T02:08:40.227Z,0.00
2022-10-15T02:09:40.255Z,0.00
2022-10-15T02:10:40.382Z,0.00
2022-10-15T02:11:40.311Z,0.00
2022-10-15T02:12:40.338Z,0.00
2022-10-15T02:13:40.364Z,0.00
2022-10-15T02:14:40.395Z,0.00
2022-10-15T02:15:40.420Z,0.00
2022-10-15T02:16:40.449Z,0.00
2022-10-15T02:17:40.475Z,0.00
2022-10-15T02:18:40.505Z,0.00
2022-10-15T02:19:40.529Z,0.00
2022-10-15T02:20:40.559Z,0.00
2022-10-15T02:21:40.584Z,0.00
2022-10-15T02:22:40.614Z,0.00
2022-10-15T02:23:40.642Z,0.00
2022-10-15T02:24:40.669Z,0.00
2022-10-15T02:25:40.694Z,0.00
2022-10-15T02:26:40.743Z,0.00
2022-10-15T02:27:40.751Z,0.00
2022-10-15T02:28:40.820Z,0.00
2022-10-15T02:29:40.806Z,0.00
2022-10-15T02:30:40.839Z,0.00
2022-10-15T02:31:40.863Z,0.00
2022-10-15T02:32:40.891Z,0.00
2022-10-15T02:33:40.915Z,0.00
2022-10-15T02:34:40.945Z,0.00
2022-10-15T02:35:40.972Z,0.00
2022-10-15T02:36:41.000Z,0.00
2022-10-15T02:37:41.027Z,0.00
2022-10-15T02:38:41.055Z,0.00
2022-10-15T02:39:41.083Z,0.00
2022-10-15T02:40:41.111Z,0.00
2022-10-15T02:41:41.137Z,0.00
2022-10-15T02:42:41.185Z,0.00
2022-10-15T02:43:41.193Z,0.00
2022-10-15T02:44:41.219Z,0.00
2022-10-15T02:45:41.248Z,0.00
2022-10-15T02:46:41.275Z,0.00
2022-10-15T02:47:41.305Z,0.00
2022-10-15T02:48:41.329Z,0.00
2022-10-15T02:49:41.356Z,0.00
2022-10-15T02:50:41.385Z,0.00
2022-10-15T02:51:41.414Z,0.00
2022-10-15T02:52:41.442Z,0.00
2022-10-15T02:53:41.467Z,0.00
2022-10-15T02:54:41.498Z,0.00
2022-10-15T02:55:41.522Z,0.00
2022-10-15T02:56:41.552Z,0.00
2022-10-15T02:57:41.579Z,0.00
2022-10-15T02:58:41.626Z,0.00
2022-10-15T02:59:41.633Z,0.00
2022-10-15T03:00:41.724Z,0.00
2022-10-15T03:01:41.687Z,0.00
2022-10-15T03:02:41.716Z,0.00
2022-10-15T03:03:41.744Z,0.00
2022-10-15T03:04:41.772Z,0.00
2022-10-15T03:05:41.800Z,0.00
2022-10-15T03:06:41.828Z,0.00
2022-10-15T03:07:41.857Z,0.00
2022-10-15T03:08:41.883Z,0.00
2022-10-15T03:09:41.909Z,0.00
2022-10-15T03:10:41.938Z,0.00
2022-10-15T03:11:41.965Z,0.00
2022-10-15T03:12:41.993Z,0.00
2022-10-15T03:13:42.018Z,0.00
2022-10-15T03:14:42.067Z,0.00
2022-10-15T03:15:42.075Z,0.00
2022-10-15T03:16:42.105Z,0.00
2022-10-15T03:17:42.130Z,0.00
2022-10-15T03:18:42.162Z,0.00
2022-10-15T03:19:42.186Z,0.00
2022-10-15T03:20:42.214Z,0.00
2022-10-15T03:21:42.246Z,0.00
2022-10-15T03:22:42.270Z,0.00
2022-10-15T03:23:42.300Z,0.00
2022-10-15T03:24:42.326Z,0.00
2022-10-15T03:25:42.353Z,0.00
2022-10-15T03:26:42.386Z,0.00
2022-10-15T03:27:42.407Z,0.00
2022-10-15T03:28:42.461Z,0.00
2022-10-15T03:29:42.461Z,0.00
2022-10-15T03:30:42.514Z,0.00
2022-10-15T03:31:42.518Z,0.00
2022-10-15T03:33:42.572Z,0.00
2022-10-15T03:34:42.602Z,0.00
2022-10-15T03:35:42.628Z,0.00
2022-10-15T03:36:42.656Z,0.00
2022-10-15T03:37:42.689Z,0.00
2022-10-15T03:38:42.712Z,0.00
2022-10-15T03:39:42.740Z,0.00
2022-10-15T03:40:42.768Z,0.00
2022-10-15T03:42:42.825Z,0.00
2022-10-15T03:43:43.221Z,0.00
2022-10-15T03:44:42.880Z,0.00
2022-10-15T03:45:42.904Z,0.00
2022-10-15T03:46:42.952Z,0.00
2022-10-15T03:47:42.960Z,0.00
2022-10-15T03:48:42.991Z,0.00
2022-10-15T03:49:43.013Z,0.00
2022-10-15T03:50:43.045Z,0.00
2022-10-15T03:51:43.071Z,0.00
2022-10-15T03:52:43.099Z,0.00
2022-10-15T03:53:43.127Z,0.00
2022-10-15T03:54:43.155Z,0.00
2022-10-15T03:55:43.181Z,0.00
2022-10-15T03:56:43.209Z,0.00
2022-10-15T03:57:43.339Z,0.00
2022-10-15T03:58:43.268Z,0.00
2022-10-15T04:00:43.364Z,0.00
2022-10-15T04:01:43.351Z,0.00
2022-10-15T04:02:43.395Z,0.00
2022-10-15T04:03:43.404Z,0.00
2022-10-15T04:04:43.431Z,0.00
2022-10-15T04:05:43.458Z,0.00
2022-10-15T04:06:43.487Z,0.00
2022-10-15T04:07:43.514Z,0.00
2022-10-15T04:08:43.591Z,0.00
2022-10-15T04:09:43.567Z,0.00
2022-10-15T04:10:43.599Z,0.00
2022-10-15T04:11:43.624Z,0.00
2022-10-15T04:12:43.653Z,0.00
2022-10-15T04:13:43.683Z,0.00
2022-10-15T04:14:43.708Z,0.00
2022-10-15T04:15:43.736Z,0.00
2022-10-15T04:16:43.764Z,0.00
2022-10-15T04:17:43.850Z,0.00
2022-10-15T04:18:43.835Z,0.00
2022-10-15T04:19:43.846Z,0.00
2022-10-15T04:20:43.871Z,0.00
2022-10-15T04:21:43.902Z,0.00
2022-10-15T04:22:43.928Z,0.00
2022-10-15T04:23:43.957Z,0.00
2022-10-15T04:24:43.983Z,0.00
2022-10-15T04:25:44.012Z,0.00
2022-10-15T04:26:44.038Z,0.00
2022-10-15T04:27:44.068Z,0.00
2022-10-15T04:28:44.173Z,0.00
2022-10-15T04:29:44.124Z,0.00
2022-10-15T04:30:44.150Z,0.00
2022-10-15T04:31:44.181Z,0.00
2022-10-15T04:32:44.207Z,0.00
2022-10-15T04:33:44.234Z,0.00
2022-10-15T04:34:44.280Z,0.00
2022-10-15T04:35:44.290Z,0.00
2022-10-15T04:36:44.317Z,0.00
2022-10-15T04:37:44.350Z,0.00
2022-10-15T04:38:44.372Z,0.00
2022-10-15T04:39:44.427Z,0.00
2022-10-15T04:40:44.431Z,0.00
2022-10-15T04:41:44.456Z,0.00
2022-10-15T04:42:44.483Z,0.00
2022-10-15T04:43:44.514Z,0.00
2022-10-15T04:44:44.538Z,0.00
2022-10-15T04:45:44.569Z,0.00
2022-10-15T04:46:44.597Z,0.00
2022-10-15T04:47:44.625Z,0.00
2022-10-15T04:48:44.651Z,0.00
2022-10-15T04:49:44.689Z,0.00
2022-10-15T04:50:44.723Z,0.00
2022-10-15T04:51:44.736Z,0.00
2022-10-15T04:52:44.761Z,0.00
2022-10-15T04:53:44.791Z,0.00
2022-10-15T04:54:44.818Z,0.00
2022-10-15T04:55:44.847Z,0.00
2022-10-15T04:56:44.873Z,0.00
2022-10-15T04:57:44.900Z,0.00
2022-10-15T04:58:44.930Z,0.00
2022-10-15T04:59:44.958Z,0.00
2022-10-15T05:00:44.983Z,0.00
2022-10-15T05:01:45.104Z,0.00
2022-10-15T05:02:45.039Z,0.00
2022-10-15T05:03:45.440Z,0.00
2022-10-15T05:04:45.095Z,0.00
2022-10-15T05:05:45.124Z,0.00
2022-10-15T05:06:45.170Z,0.00
2022-10-15T05:07:45.180Z,0.00
2022-10-15T05:08:45.207Z,0.00
2022-10-15T05:09:46.431Z,0.00
2022-10-15T05:10:45.264Z,0.00
2022-10-15T05:11:45.295Z,0.00
2022-10-15T05:12:45.321Z,0.00
2022-10-15T05:13:45.348Z,0.00
2022-10-15T05:14:45.373Z,0.00
2022-10-15T05:15:45.410Z,0.00
2022-10-15T05:16:45.429Z,0.00
2022-10-15T05:17:45.459Z,0.00
2022-10-15T05:18:45.487Z,0.00
2022-10-15T05:19:45.514Z,0.00
2022-10-15T05:20:45.541Z,0.00
2022-10-15T05:21:45.587Z,0.00
2022-10-15T05:22:45.615Z,0.00
2022-10-15T05:23:45.635Z,0.00
2022-10-15T05:24:45.650Z,0.00
2022-10-15T05:25:49.165Z,0.00
2022-10-15T05:26:45.709Z,0.00
2022-10-15T05:27:45.736Z,0.00
2022-10-15T05:28:45.803Z,0.00
2022-10-15T05:29:45.791Z,0.00
2022-10-15T05:30:45.819Z,0.00
2022-10-15T05:31:45.854Z,4.00
2022-10-15T05:32:45.875Z,0.00
2022-10-15T05:33:45.903Z,4.00
2022-10-15T05:34:45.930Z,4.00
2022-10-15T05:35:45.960Z,4.00
2022-10-15T05:36:45.985Z,8.00
2022-10-15T05:37:46.014Z,12.00
2022-10-15T05:38:46.061Z,16.00
2022-10-15T05:39:46.072Z,16.00
2022-10-15T05:40:46.097Z,24.00
2022-10-15T05:41:46.126Z,28.00
2022-10-15T05:42:46.192Z,32.00
2022-10-15T05:43:46.186Z,36.00
2022-10-15T05:44:46.210Z,40.00
2022-10-15T05:45:46.237Z,44.00
2022-10-15T05:46:46.263Z,48.00
2022-10-15T05:47:46.294Z,56.00
2022-10-15T05:48:46.320Z,56.00
2022-10-15T05:49:46.352Z,60.00
2022-10-15T05:50:46.374Z,68.00
2022-10-15T05:51:46.468Z,76.00
2022-10-15T05:52:46.431Z,84.00
2022-10-15T05:53:46.501Z,92.00
2022-10-15T05:54:46.504Z,100.00
2022-10-15T05:55:46.515Z,108.00
2022-10-15T05:56:46.542Z,112.00
2022-10-15T05:57:46.571Z,120.00
2022-10-15T05:58:46.624Z,128.00
2022-10-15T05:59:46.626Z,132.00
2022-10-15T06:00:46.652Z,136.00
2022-10-15T06:01:46.766Z,136.00
2022-10-15T06:02:46.875Z,148.00
2022-10-15T06:03:46.741Z,164.00
2022-10-15T06:04:46.766Z,184.00
2022-10-15T06:05:46.792Z,200.00
2022-10-15T06:06:46.818Z,212.00
2022-10-15T06:07:46.848Z,224.00
2022-10-15T06:08:46.891Z,232.00
2022-10-15T06:09:46.904Z,236.00
2022-10-15T06:10:46.949Z,244.00
2022-10-15T06:11:46.963Z,248.00
2022-10-15T06:12:46.985Z,264.00
2022-10-15T06:13:47.016Z,284.00
2022-10-15T06:14:47.050Z,320.00
2022-10-15T06:15:47.071Z,348.00
2022-10-15T06:16:47.096Z,380.00
2022-10-15T06:17:47.125Z,404.00
2022-10-15T06:18:47.152Z,432.00
2022-10-15T06:19:47.181Z,460.00
2022-10-15T06:20:47.206Z,500.00
2022-10-15T06:21:47.237Z,560.00
2022-10-15T06:22:47.265Z,668.00
2022-10-15T06:23:47.295Z,792.00
2022-10-15T06:24:47.319Z,900.00
2022-10-15T06:25:47.346Z,948.00
2022-10-15T06:26:47.398Z,1060.00
2022-10-15T06:27:47.403Z,1152.00
2022-10-15T06:28:47.502Z,1212.00
2022-10-15T06:29:47.458Z,1336.00
2022-10-15T06:30:47.484Z,1508.00
2022-10-15T06:31:47.512Z,1708.00
2022-10-15T06:32:47.538Z,1808.00
2022-10-15T06:33:47.571Z,1912.00
2022-10-15T06:34:47.593Z,1944.00
2022-10-15T06:35:47.622Z,2016.00
2022-10-15T06:36:47.648Z,2048.00
2022-10-15T06:37:47.677Z,1992.00
2022-10-15T06:38:47.704Z,2044.00
2022-10-15T06:39:47.733Z,2172.00
2022-10-15T06:40:47.760Z,2124.00
2022-10-15T06:41:47.788Z,1944.00
2022-10-15T06:42:47.841Z,2040.00
2022-10-15T06:43:47.899Z,2248.00
2022-10-15T06:44:47.867Z,2564.00
2022-10-15T06:45:47.898Z,2752.00
2022-10-15T06:46:47.924Z,2696.00
2022-10-15T06:47:47.958Z,2852.00
2022-10-15T06:48:47.979Z,3020.00
2022-10-15T06:49:48.008Z,3184.00
2022-10-15T06:50:48.035Z,3276.00
2022-10-15T06:51:48.065Z,3276.00
2022-10-15T06:52:48.150Z,3280.00
2022-10-15T06:53:48.121Z,3292.00
2022-10-15T06:54:48.145Z,3336.00
2022-10-15T06:56:48.215Z,3476.00
2022-10-15T06:57:48.228Z,3476.00
2022-10-15T06:58:48.275Z,3476.00
2022-10-15T06:59:48.283Z,3508.00
2022-10-15T07:00:48.312Z,3508.00
2022-10-15T07:01:48.339Z,3512.00
2022-10-15T07:02:48.369Z,3444.00
2022-10-15T07:03:48.395Z,3360.00
2022-10-15T07:04:48.423Z,3212.00
2022-10-15T07:05:48.451Z,3104.00
2022-10-15T07:06:48.480Z,3160.00
2022-10-15T07:07:48.507Z,3364.00
2022-10-15T07:08:48.535Z,3496.00
2022-10-15T07:09:48.562Z,3540.00
2022-10-15T07:10:48.598Z,3504.00
2022-10-15T07:11:48.619Z,3472.00
2022-10-15T07:12:48.647Z,3452.00
2022-10-15T07:13:48.675Z,3372.00
2022-10-15T07:14:48.725Z,3228.00
2022-10-15T07:15:48.730Z,3016.00
2022-10-15T07:16:48.759Z,2908.00
2022-10-15T07:17:48.786Z,2900.00
2022-10-15T07:18:48.816Z,2880.00
2022-10-15T07:19:48.840Z,2880.00
2022-10-15T07:20:48.871Z,2848.00
2022-10-15T07:21:48.897Z,2864.00
2022-10-15T07:22:48.927Z,2816.00
2022-10-15T07:23:48.953Z,2688.00
2022-10-15T07:24:48.985Z,2560.00
2022-10-15T07:25:49.009Z,2604.00
2022-10-15T07:26:49.040Z,2724.00
2022-10-15T07:27:49.066Z,2756.00
2022-10-15T07:28:49.167Z,2816.00
2022-10-15T07:29:49.121Z,2840.00
2022-10-15T07:30:49.171Z,2820.00
2022-10-15T07:31:49.180Z,2760.00
2022-10-15T07:32:50.285Z,2628.00
2022-10-15T07:33:49.235Z,2392.00
2022-10-15T07:34:49.264Z,2128.00
2022-10-15T07:35:49.291Z,1972.00
2022-10-15T07:36:49.319Z,1928.00
2022-10-15T07:37:49.348Z,2016.00
2022-10-15T07:38:49.377Z,2284.00
2022-10-15T07:39:49.402Z,2824.00
2022-10-15T07:40:49.430Z,3432.00
2022-10-15T07:41:49.459Z,3888.00
2022-10-15T07:42:49.489Z,4112.00
2022-10-15T07:43:49.516Z,4160.00
2022-10-15T07:44:49.544Z,4340.00
2022-10-15T07:45:49.572Z,5448.00
2022-10-15T07:46:49.619Z,6708.00
2022-10-15T07:47:49.637Z,6324.00
2022-10-15T07:48:49.657Z,5916.00
2022-10-15T07:49:49.683Z,6140.00
2022-10-15T07:50:49.723Z,6512.00
2022-10-15T07:51:49.741Z,7020.00
2022-10-15T07:52:49.771Z,7424.00
2022-10-15T07:53:49.799Z,7508.00
2022-10-15T07:54:49.825Z,7268.00
2022-10-15T07:55:49.864Z,7024.00
2022-10-15T07:56:49.883Z,6744.00
2022-10-15T07:57:49.913Z,6560.00
2022-10-15T07:58:49.941Z,6320.00
2022-10-15T07:59:49.970Z,6136.00
2022-10-15T08:00:49.998Z,5976.00
2022-10-15T08:01:50.751Z,5804.00
2022-10-15T08:02:50.074Z,5656.00
2022-10-15T08:03:50.084Z,5660.00
2022-10-15T08:04:50.114Z,5856.00
2022-10-15T08:05:50.139Z,6244.00
2022-10-15T08:06:50.170Z,6680.00
2022-10-15T08:07:50.196Z,6756.00
2022-10-15T08:08:50.228Z,6600.00
2022-10-15T08:09:50.254Z,6404.00
2022-10-15T08:10:50.284Z,6216.00
2022-10-15T08:11:50.312Z,6048.00
2022-10-15T08:12:50.341Z,5900.00
2022-10-15T08:13:50.368Z,5724.00
2022-10-15T08:14:50.402Z,5460.00
2022-10-15T08:15:50.439Z,5160.00
2022-10-15T08:16:50.460Z,4916.00
2022-10-15T08:17:50.492Z,4768.00
2022-10-15T08:18:53.595Z,4672.00
2022-10-15T08:19:50.542Z,4636.00
2022-10-15T08:20:50.575Z,4712.00
2022-10-15T08:21:50.602Z,4828.00
2022-10-15T08:22:50.629Z,5024.00
2022-10-15T08:23:50.659Z,5244.00
2022-10-15T08:24:50.686Z,5548.00
2022-10-15T08:25:50.714Z,5876.00
2022-10-15T08:26:50.745Z,6140.00
2022-10-15T08:27:50.772Z,6312.00
2022-10-15T08:28:50.977Z,6688.00
2022-10-15T08:29:50.831Z,7116.00
2022-10-15T08:30:50.860Z,7308.00
2022-10-15T08:31:50.887Z,7572.00
2022-10-15T08:32:50.917Z,7404.00
2022-10-15T08:33:50.947Z,6916.00
2022-10-15T08:34:50.993Z,6464.00
2022-10-15T08:35:51.005Z,6188.00
2022-10-15T08:36:51.033Z,5628.00
2022-10-15T08:37:51.063Z,5036.00
2022-10-15T08:38:51.090Z,4808.00
2022-10-15T08:39:51.122Z,4760.00
2022-10-15T08:40:51.154Z,4912.00
2022-10-15T08:41:51.181Z,5280.00
2022-10-15T08:42:51.208Z,5848.00
2022-10-15T08:43:51.238Z,5904.00
2022-10-15T08:44:51.263Z,5460.00
2022-10-15T08:45:51.296Z,5140.00
2022-10-15T08:46:51.323Z,5268.00
2022-10-15T08:47:51.357Z,5604.00
2022-10-15T08:48:51.381Z,5576.00
2022-10-15T08:49:51.415Z,5368.00
2022-10-15T08:50:53.969Z,5632.00
2022-10-15T08:51:51.470Z,6336.00
2022-10-15T08:52:51.496Z,6876.00
2022-10-15T08:53:51.529Z,7408.00
2022-10-15T08:54:51.555Z,7832.00
2022-10-15T08:55:51.588Z,8476.00
2022-10-15T08:56:51.613Z,9288.00
2022-10-15T08:57:51.644Z,9984.00
2022-10-15T08:58:51.674Z,10160.00
2022-10-15T08:59:51.703Z,9712.00
2022-10-15T09:00:51.733Z,8796.00
2022-10-15T09:01:51.764Z,7656.00
2022-10-15T09:02:51.930Z,6700.00
2022-10-15T09:03:51.821Z,6072.00
2022-10-15T09:04:51.849Z,5788.00
2022-10-15T09:05:51.882Z,6092.00
2022-10-15T09:06:51.955Z,6852.00
2022-10-15T09:07:54.363Z,7924.00
2022-10-15T09:08:51.965Z,9104.00
2022-10-15T09:09:52.008Z,9508.00
2022-10-15T09:10:52.025Z,8856.00
2022-10-15T09:11:52.061Z,8036.00
2022-10-15T09:12:52.086Z,7548.00
2022-10-15T09:13:52.119Z,7364.00
2022-10-15T09:14:53.802Z,7108.00
2022-10-15T09:15:52.175Z,6272.00
2022-10-15T09:16:52.310Z,5496.00
2022-10-15T09:17:52.233Z,5132.00
2022-10-15T09:18:52.265Z,4820.00
2022-10-15T09:19:52.293Z,4816.00
2022-10-15T09:20:52.320Z,4992.00
2022-10-15T09:21:52.360Z,5364.00
2022-10-15T09:22:52.401Z,5748.00
2022-10-15T09:23:52.412Z,5928.00
2022-10-15T09:24:52.440Z,5940.00
2022-10-15T09:25:52.470Z,5880.00
2022-10-15T09:26:52.498Z,6140.00
2022-10-15T09:27:52.529Z,6684.00
2022-10-15T09:28:52.661Z,6940.00
2022-10-15T09:29:52.590Z,7724.00
2022-10-15T09:30:52.617Z,7728.00
2022-10-15T09:31:52.725Z,7420.00
2022-10-15T09:32:54.380Z,6840.00
2022-10-15T09:33:52.709Z,6176.00
2022-10-15T09:34:52.736Z,5696.00
2022-10-15T09:35:52.777Z,5896.00
2022-10-15T09:36:52.892Z,6292.00
2022-10-15T09:37:52.923Z,6676.00
2022-10-15T09:38:52.869Z,7216.00
2022-10-15T09:39:52.935Z,7488.00
2022-10-15T09:40:52.945Z,7328.00
2022-10-15T09:41:52.942Z,7436.00
2022-10-15T09:42:52.970Z,8268.00
2022-10-15T09:43:53.002Z,8404.00
2022-10-15T09:44:53.030Z,7580.00
2022-10-15T09:45:53.061Z,6752.00
2022-10-15T09:46:53.090Z,6492.00
2022-10-15T09:47:53.129Z,6560.00
2022-10-15T09:48:53.149Z,6524.00
2022-10-15T09:49:53.178Z,6572.00
2022-10-15T09:50:53.209Z,7292.00
2022-10-15T09:51:53.240Z,7976.00
2022-10-15T09:52:53.265Z,7624.00
2022-10-15T09:53:53.296Z,7056.00
2022-10-15T09:54:53.342Z,7228.00
2022-10-15T09:55:53.357Z,7164.00
2022-10-15T09:56:53.383Z,6676.00
2022-10-15T09:57:53.414Z,6224.00
2022-10-15T09:58:53.443Z,6136.00
2022-10-15T09:59:53.478Z,6368.00
2022-10-15T10:00:53.504Z,6744.00
2022-10-15T10:01:53.568Z,6844.00
2022-10-15T10:02:53.563Z,6832.00
2022-10-15T10:03:53.594Z,7060.00
2022-10-15T10:04:53.623Z,7756.00
2022-10-15T10:05:53.651Z,8292.00
2022-10-15T10:06:53.679Z,8144.00
2022-10-15T10:07:53.712Z,7248.00
2022-10-15T10:08:53.739Z,6420.00
2022-10-15T10:09:53.770Z,6084.00
2022-10-15T10:10:53.817Z,5980.00
2022-10-15T10:11:53.830Z,6012.00
2022-10-15T10:12:53.857Z,6244.00
2022-10-15T10:13:53.889Z,6048.00
2022-10-15T10:14:53.920Z,5488.00
2022-10-15T10:15:58.258Z,5320.00
2022-10-15T10:16:53.975Z,5900.00
2022-10-15T10:17:54.075Z,6720.00
2022-10-15T10:18:54.046Z,7316.00
2022-10-15T10:19:54.068Z,7592.00
2022-10-15T10:20:54.096Z,7592.00
2022-10-15T10:21:54.126Z,7880.00
2022-10-15T10:22:54.154Z,9008.00
2022-10-15T10:23:54.186Z,9080.00
2022-10-15T10:24:54.215Z,8812.00
2022-10-15T10:25:54.245Z,8660.00
2022-10-15T10:26:54.368Z,8592.00
2022-10-15T10:27:54.310Z,7748.00
2022-10-15T10:28:57.122Z,7600.00
2022-10-15T10:29:54.421Z,7436.00
2022-10-15T10:30:54.396Z,7740.00
2022-10-15T10:31:54.425Z,8952.00
2022-10-15T10:32:54.454Z,9916.00
2022-10-15T10:33:54.484Z,10420.00
2022-10-15T10:34:54.513Z,9984.00
2022-10-15T10:35:54.551Z,9052.00
2022-10-15T10:36:54.894Z,8204.00
2022-10-15T10:38:54.848Z,8712.00
2022-10-15T10:39:57.486Z,9312.00
2022-10-15T10:40:54.691Z,8544.00
2022-10-15T10:41:54.720Z,7240.00
2022-10-15T10:42:56.488Z,6856.00
2022-10-15T10:43:54.780Z,6732.00
2022-10-15T10:44:54.810Z,6580.00
2022-10-15T10:45:54.841Z,6580.00
2022-10-15T10:46:54.872Z,6764.00
2022-10-15T10:47:54.901Z,6972.00
2022-10-15T10:48:54.932Z,6640.00
2022-10-15T10:49:54.960Z,6228.00
2022-10-15T10:50:54.992Z,7144.00
2022-10-15T10:51:55.022Z,7200.00
2022-10-15T10:52:55.053Z,6872.00
2022-10-15T10:53:55.082Z,6092.00
2022-10-15T10:54:55.114Z,5876.00
2022-10-15T10:55:55.143Z,6484.00
2022-10-15T10:56:55.175Z,7816.00
2022-10-15T10:57:55.205Z,8060.00
2022-10-15T10:58:55.252Z,8688.00
2022-10-15T10:59:55.266Z,8728.00
2022-10-15T11:00:55.363Z,7804.00
2022-10-15T11:01:55.325Z,6576.00
2022-10-15T11:02:55.357Z,6432.00
2022-10-15T11:03:55.438Z,6780.00
2022-10-15T11:04:55.417Z,7084.00
2022-10-15T11:05:55.445Z,6544.00
2022-10-15T11:06:55.479Z,5668.00
2022-10-15T11:07:55.508Z,5816.00
2022-10-15T11:08:55.538Z,5384.00
2022-10-15T11:09:56.451Z,4432.00
2022-10-15T11:10:55.601Z,3652.00
2022-10-15T11:11:55.633Z,3624.00
2022-10-15T11:12:55.661Z,4224.00
2022-10-15T11:13:55.689Z,4784.00
2022-10-15T11:14:55.742Z,4892.00
2022-10-15T11:15:55.750Z,4596.00
2022-10-15T11:16:55.782Z,4544.00
2022-10-15T11:17:55.811Z,4628.00
2022-10-15T11:18:55.845Z,5080.00
2022-10-15T11:20:59.726Z,4496.00
2022-10-15T11:21:55.933Z,4424.00
2022-10-15T11:22:55.965Z,4648.00
2022-10-15T11:23:55.994Z,4608.00
2022-10-15T11:25:06.750Z,4336.00
2022-10-15T11:25:56.054Z,4508.00
2022-10-15T11:27:09.772Z,4592.00
2022-10-15T11:27:56.117Z,4440.00
2022-10-15T11:28:56.209Z,4076.00
2022-10-15T11:29:56.176Z,4328.00
2022-10-15T11:30:56.225Z,4724.00
2022-10-15T11:32:02.950Z,4716.00
2022-10-15T11:33:09.576Z,4876.00
2022-10-15T11:33:56.296Z,4908.00
2022-10-15T11:34:56.330Z,4868.00
2022-10-15T11:35:56.358Z,4660.00
2022-10-15T11:36:56.389Z,5252.00
2022-10-15T11:37:56.418Z,5972.00
2022-10-15T11:38:56.446Z,6592.00
2022-10-15T11:40:56.503Z,6344.00
2022-10-15T11:41:56.536Z,6044.00
2022-10-15T11:42:56.568Z,5972.00
2022-10-15T11:43:56.596Z,5944.00
2022-10-15T11:44:56.625Z,6568.00
2022-10-15T11:45:56.660Z,5960.00
2022-10-15T11:46:56.705Z,5976.00
2022-10-15T11:47:56.720Z,6532.00
2022-10-15T11:48:56.747Z,7452.00
2022-10-15T11:49:56.781Z,7480.00
2022-10-15T11:50:56.808Z,6952.00
2022-10-15T11:51:56.840Z,6348.00
2022-10-15T11:52:56.868Z,6004.00
2022-10-15T11:53:57.506Z,5152.00
2022-10-15T11:54:56.927Z,4408.00
2022-10-15T12:02:58.111Z,3988.00
2022-10-15T12:04:39.767Z,3468.00
2022-10-15T12:05:40.998Z,3888.00
2022-10-15T12:06:39.814Z,4248.00
2022-10-15T12:07:39.859Z,4612.00
2022-10-15T12:08:39.874Z,4332.00
2022-10-15T12:09:39.917Z,3956.00
2022-10-15T12:10:39.935Z,4288.00
2022-10-15T12:11:39.977Z,4044.00
2022-10-15T12:12:39.997Z,3584.00
2022-10-15T12:13:40.024Z,3512.00
2022-10-15T12:14:40.066Z,3364.00
2022-10-15T12:15:40.082Z,3500.00
2022-10-15T12:16:40.111Z,3576.00
2022-10-15T12:17:40.144Z,3776.00
2022-10-15T12:18:40.394Z,4152.00
2022-10-15T12:19:40.219Z,4020.00
2022-10-15T12:20:40.246Z,4128.00
2022-10-15T12:21:40.281Z,4084.00
2022-10-15T12:23:40.327Z,4784.00
2022-10-15T12:24:40.355Z,5112.00
2022-10-15T12:25:40.383Z,6228.00
2022-10-15T12:26:40.414Z,6856.00
2022-10-15T12:27:40.444Z,7036.00
2022-10-15T12:28:40.510Z,7248.00
2022-10-15T12:30:41.245Z,6768.00
2022-10-15T12:31:40.909Z,6744.00
2022-10-15T12:32:40.595Z,6340.00
2022-10-15T12:33:40.627Z,6104.00
2022-10-15T12:34:40.680Z,6312.00
2022-10-15T12:35:40.686Z,6360.00
2022-10-15T12:36:40.718Z,6124.00
2022-10-15T12:37:40.750Z,5648.00
2022-10-15T12:38:40.793Z,4696.00
2022-10-15T12:39:51.756Z,4636.00
2022-10-15T12:41:41.395Z,4792.00
2022-10-15T12:42:44.330Z,4532.00
2022-10-15T12:43:43.553Z,4160.00
2022-10-15T12:44:40.970Z,3572.00
2022-10-15T12:45:41.726Z,3524.00
2022-10-15T12:49:41.127Z,3552.00
2022-10-15T12:52:41.222Z,6264.00
2022-10-15T12:53:41.847Z,6260.00
2022-10-15T12:55:41.318Z,6844.00
2022-10-15T13:05:41.607Z,5140.00
2022-10-15T13:06:41.637Z,5144.00
2022-10-15T13:07:41.670Z,5176.00
2022-10-15T13:08:41.717Z,4964.00
2022-10-15T13:09:44.956Z,4776.00
2022-10-15T13:11:49.370Z,5736.00
2022-10-15T13:12:49.397Z,6104.00